23:53
Airports
History
Links
Donate
Help keep this website running!
PayPal
Bitcoin
This page is community maintained. The information is intended for PC simulator navigation or reference.
Always use approved charts for navigation.
SJDJ
Arenhart
Arenhart (SJDJ)
Uruguaiana, Rio Grande do Sul, Brazil
4
Lat/Lng:29° 53' 19" S / 57° 8' 24" W
-29.888611 / -57.14
Elevation:210'ft / 64mMSL
ID / ICAO:SJDJ
Runways:1
Longest:12-30
Grass 370m / 1,214ft
Nearby Weather21:00 GMT 2017-12-12
Nearby weather at SBUG, Rubem Berta located 9.6 nautical miles from SJDJ
Altimeter: 29.80
Visibility: 6.2 statute miles
Wind: 4 knots (from 050°)
Temp: 31°c / 88°f
Humidity: 29.2%

METAR: SBUG 122100Z 05004KT CAVOK 31/11 Q1009

(Powered by phpweather)
Runway 12 / 30
Dimensions:370.1 x 22.9m 1214' x 75'ft
Surface:Grass
Runway 12 [A]Runway 30 [B]
Heading:111°TH 291°TH
Lat:
Lng:
29° 53' 16.84"S
57° 8' 30.38"W
29° 53' 21.16"S
57° 8' 17.62"W
User Notes and Comments
29° 53' 19" S / 57° 8' 24" W
Distance To
Airport ID:
Nearby Airports
(U) Rubem Berta 9.6 NM
SBUG ( WX ) NE 39°
(C) PASO DE LOS LIBRES 13.8 NM
SARL ( WX ) N 356°
4 Nossa Sra. do Loreto 15.4 NM
SJDU NE 43°
(C) MONTE CASEROS 39.9 NM
SARM ( WX ) SW 228°
4 YAPEYU 41.8 NM
SA2K NNE 29°
4 LIBERTAD LA ESMERALDA 42.4 NM
SA8N W 260°
4 MONTE CASEROS TIMBOY 48.1 NM
SA9S WSW 241°
VFR Chart
Flight Planning at SkyVector.com